createdAt,value
2023-12-09T00:01:43.682Z,57.68
2023-12-09T00:04:10.861Z,57.94
2023-12-09T00:06:37.580Z,57.52
2023-12-09T00:09:04.888Z,57.50
2023-12-09T00:11:31.492Z,57.86
2023-12-09T00:14:04.737Z,57.83
2023-12-09T00:16:32.031Z,57.86
2023-12-09T00:19:00.244Z,57.51
2023-12-09T00:21:28.233Z,57.82
2023-12-09T00:23:55.005Z,57.83
2023-12-09T00:26:21.483Z,57.79
2023-12-09T00:28:48.027Z,57.98
2023-12-09T00:31:14.524Z,57.94
2023-12-09T00:33:41.611Z,57.54
2023-12-09T00:36:09.034Z,57.71
2023-12-09T00:38:35.574Z,57.80
2023-12-09T00:41:02.164Z,57.80
2023-12-09T00:43:28.583Z,57.87
2023-12-09T00:45:55.113Z,57.44
2023-12-09T00:48:21.784Z,57.74
2023-12-09T00:50:48.410Z,57.88
2023-12-09T00:53:14.885Z,57.46
2023-12-09T00:55:41.343Z,57.62
2023-12-09T00:58:07.812Z,57.84
2023-12-09T01:00:34.394Z,57.82
2023-12-09T01:03:01.106Z,57.82
2023-12-09T01:05:27.595Z,57.89
2023-12-09T01:07:54.044Z,57.82
2023-12-09T01:10:20.596Z,57.95
2023-12-09T01:12:47.205Z,57.62
2023-12-09T01:15:13.874Z,57.63
2023-12-09T01:17:40.381Z,57.54
2023-12-09T01:20:07.514Z,57.59
2023-12-09T01:22:34.049Z,57.51
2023-12-09T01:25:03.122Z,57.70
2023-12-09T01:27:30.339Z,57.72
2023-12-09T01:29:56.850Z,57.64
2023-12-09T01:32:23.391Z,57.65
2023-12-09T01:34:49.942Z,57.60
2023-12-09T01:37:16.442Z,57.94
2023-12-09T01:39:42.872Z,57.88
2023-12-09T01:42:09.957Z,57.87
2023-12-09T01:44:36.792Z,57.99
2023-12-09T01:47:03.720Z,57.87
2023-12-09T01:49:31.063Z,57.88
2023-12-09T01:52:00.622Z,57.85
2023-12-09T01:54:28.395Z,57.46
2023-12-09T01:56:56.868Z,57.66
2023-12-09T01:59:26.193Z,57.63
2023-12-09T02:01:53.050Z,57.39
2023-12-09T02:04:20.509Z,57.96
2023-12-09T02:06:47.178Z,57.94
2023-12-09T02:09:13.734Z,57.82
2023-12-09T02:11:53.212Z,58.00
2023-12-09T02:14:26.486Z,57.63
2023-12-09T02:17:25.610Z,57.73
2023-12-09T02:19:52.477Z,57.66
2023-12-09T02:22:18.998Z,58.02
2023-12-09T02:24:45.555Z,57.75
2023-12-09T02:27:19.532Z,57.66
2023-12-09T02:30:21.904Z,57.81
2023-12-09T02:32:50.447Z,57.92
2023-12-09T02:35:20.349Z,57.83
2023-12-09T02:37:48.441Z,57.82
2023-12-09T02:40:18.284Z,57.68
2023-12-09T02:42:45.951Z,57.81
2023-12-09T02:45:13.418Z,57.67
2023-12-09T02:47:40.157Z,57.54
2023-12-09T02:50:08.265Z,57.69
2023-12-09T02:52:34.810Z,57.74
2023-12-09T02:55:01.363Z,57.55
2023-12-09T02:57:27.899Z,57.62
2023-12-09T02:59:54.429Z,57.92
2023-12-09T03:02:20.932Z,57.66
2023-12-09T03:04:47.468Z,57.70
2023-12-09T03:07:13.976Z,57.72
2023-12-09T03:09:40.489Z,58.03
2023-12-09T03:12:07.285Z,57.54
2023-12-09T03:14:33.735Z,57.33
2023-12-09T03:17:00.188Z,57.96
2023-12-09T03:19:26.874Z,57.53
2023-12-09T03:21:53.873Z,57.92
2023-12-09T03:24:20.342Z,58.00
2023-12-09T03:26:53.048Z,58.15
2023-12-09T03:29:20.236Z,57.80
2023-12-09T03:31:46.750Z,58.32
2023-12-09T03:34:13.930Z,57.78
2023-12-09T03:36:41.153Z,57.97
2023-12-09T03:39:08.097Z,58.01
2023-12-09T03:41:35.274Z,57.63
2023-12-09T03:44:02.899Z,57.91
2023-12-09T03:46:29.684Z,57.94
2023-12-09T03:48:56.363Z,57.68
2023-12-09T03:51:23.041Z,57.90
2023-12-09T03:53:49.580Z,57.96
2023-12-09T03:56:18.685Z,57.85
2023-12-09T03:58:45.156Z,57.75
2023-12-09T04:01:11.774Z,57.81
2023-12-09T04:03:38.293Z,58.10
2023-12-09T04:06:06.427Z,57.86
2023-12-09T04:08:33.602Z,58.00
2023-12-09T04:11:00.102Z,57.70
2023-12-09T04:13:28.298Z,57.85
2023-12-09T04:15:55.004Z,57.85
2023-12-09T04:18:21.668Z,57.96
2023-12-09T04:20:48.335Z,57.61
2023-12-09T04:23:14.761Z,57.76
2023-12-09T04:25:41.474Z,57.73
2023-12-09T04:28:09.028Z,57.69
2023-12-09T04:30:35.533Z,57.63
2023-12-09T04:33:02.150Z,57.86
2023-12-09T04:35:28.637Z,57.73
2023-12-09T04:37:55.138Z,57.81
2023-12-09T04:40:21.707Z,57.97
2023-12-09T04:42:48.741Z,57.98
2023-12-09T04:45:15.178Z,57.89
2023-12-09T04:47:41.995Z,57.91
2023-12-09T04:50:12.435Z,57.69
2023-12-09T04:52:39.104Z,58.08
2023-12-09T04:55:06.028Z,57.86
2023-12-09T04:57:32.895Z,57.69
2023-12-09T04:59:59.782Z,57.77
2023-12-09T05:02:26.446Z,58.05
2023-12-09T05:04:54.166Z,57.91
2023-12-09T05:07:20.948Z,57.77
2023-12-09T05:09:47.536Z,57.94
2023-12-09T05:12:14.115Z,57.86
2023-12-09T05:14:40.594Z,57.70
2023-12-09T05:17:07.075Z,57.88
2023-12-09T05:19:33.791Z,57.98
2023-12-09T05:22:01.254Z,57.93
2023-12-09T05:24:27.766Z,57.73
2023-12-09T05:26:54.346Z,57.88
2023-12-09T05:29:20.823Z,57.83
2023-12-09T05:31:47.278Z,57.71
2023-12-09T05:34:13.913Z,57.93
2023-12-09T05:36:40.525Z,57.71
2023-12-09T05:39:07.429Z,57.91
2023-12-09T05:41:33.939Z,58.02
2023-12-09T05:44:00.434Z,57.88
2023-12-09T05:46:27.057Z,57.65
2023-12-09T05:48:53.721Z,57.76
2023-12-09T05:51:20.303Z,57.67
2023-12-09T05:53:46.820Z,57.94
2023-12-09T05:56:13.338Z,57.82
2023-12-09T05:58:42.831Z,58.03
2023-12-09T06:01:09.579Z,57.69
2023-12-09T06:03:36.176Z,57.96
2023-12-09T06:06:03.063Z,57.94
2023-12-09T06:08:29.611Z,57.93
2023-12-09T06:10:56.044Z,57.77
2023-12-09T06:13:22.502Z,57.68
2023-12-09T06:15:51.166Z,58.05
2023-12-09T06:18:18.546Z,57.91
2023-12-09T06:20:45.870Z,57.88
2023-12-09T06:23:12.552Z,57.77
2023-12-09T06:25:39.019Z,57.71
2023-12-09T06:28:05.507Z,57.55
2023-12-09T06:30:33.273Z,57.80
2023-12-09T06:33:00.041Z,57.83
2023-12-09T06:35:26.597Z,57.90
2023-12-09T06:37:55.738Z,57.83
2023-12-09T06:40:24.078Z,57.66
2023-12-09T06:42:50.698Z,57.75
2023-12-09T06:45:17.769Z,57.79
2023-12-09T06:47:44.366Z,57.85
2023-12-09T06:50:10.886Z,57.81
2023-12-09T06:52:37.414Z,57.82
2023-12-09T06:55:04.292Z,57.78
2023-12-09T06:57:31.020Z,57.86
2023-12-09T06:59:57.571Z,57.96
2023-12-09T07:02:24.427Z,57.94
2023-12-09T07:04:51.787Z,57.94
2023-12-09T07:07:22.002Z,57.87
2023-12-09T07:09:49.120Z,57.83
2023-12-09T07:12:15.752Z,57.78
2023-12-09T07:14:42.278Z,57.72
2023-12-09T07:17:08.851Z,57.71
2023-12-09T07:19:35.438Z,57.50
2023-12-09T07:22:04.550Z,57.99
2023-12-09T07:24:31.567Z,58.27
2023-12-09T07:26:58.214Z,57.94
2023-12-09T07:29:27.079Z,57.65
2023-12-09T07:31:54.031Z,57.87
2023-12-09T07:34:21.726Z,57.90
2023-12-09T07:36:48.284Z,57.58
2023-12-09T07:39:14.813Z,57.71
2023-12-09T07:41:42.689Z,57.74
2023-12-09T07:44:09.408Z,57.61
2023-12-09T07:46:35.938Z,57.67
2023-12-09T07:49:02.822Z,57.75
2023-12-09T07:51:29.335Z,57.75
2023-12-09T07:53:55.788Z,57.86
2023-12-09T07:56:22.253Z,57.57
2023-12-09T07:58:48.663Z,57.96
2023-12-09T08:01:15.410Z,57.96
2023-12-09T08:03:42.032Z,57.93
2023-12-09T08:06:08.874Z,57.95
2023-12-09T08:08:36.243Z,57.66
2023-12-09T08:11:04.183Z,57.72
2023-12-09T08:13:30.633Z,57.84
2023-12-09T08:15:57.075Z,57.85
2023-12-09T08:18:23.712Z,57.65
2023-12-09T08:20:50.466Z,57.50
2023-12-09T08:23:17.025Z,57.71
2023-12-09T08:25:44.691Z,57.97
2023-12-09T08:28:11.840Z,57.78
2023-12-09T08:30:40.263Z,57.84
2023-12-09T08:33:06.888Z,57.86
2023-12-09T08:35:33.788Z,57.49
2023-12-09T08:38:00.396Z,57.35
2023-12-09T08:40:26.886Z,57.80
2023-12-09T08:42:53.403Z,57.72
2023-12-09T08:45:19.992Z,58.09
2023-12-09T08:47:47.874Z,57.64
2023-12-09T08:52:45.086Z,57.88
2023-12-09T08:55:12.074Z,58.01
2023-12-09T08:57:38.910Z,57.86
2023-12-09T09:00:09.445Z,57.87
2023-12-09T09:02:36.162Z,57.87
2023-12-09T09:05:04.485Z,57.81
2023-12-09T09:07:31.262Z,57.83
2023-12-09T09:09:57.768Z,57.67
2023-12-09T09:12:24.347Z,57.59
2023-12-09T09:14:50.967Z,57.87
2023-12-09T09:17:17.785Z,57.69
2023-12-09T09:19:44.376Z,58.12
2023-12-09T09:22:10.870Z,57.62
2023-12-09T09:24:37.800Z,57.91
2023-12-09T09:27:04.600Z,58.02
2023-12-09T09:29:31.148Z,57.65
2023-12-09T09:31:57.644Z,57.84
2023-12-09T09:34:24.243Z,58.05
2023-12-09T09:36:50.850Z,58.05
2023-12-09T09:39:19.025Z,57.96
2023-12-09T09:42:04.704Z,58.15
2023-12-09T09:44:36.312Z,57.75
2023-12-09T09:47:04.043Z,57.96
2023-12-09T09:49:32.386Z,57.74
2023-12-09T09:52:02.782Z,57.82
2023-12-09T09:54:31.629Z,58.00
2023-12-09T09:56:59.735Z,57.98
2023-12-09T09:59:27.078Z,57.66
2023-12-09T10:01:53.709Z,57.91
2023-12-09T10:04:20.197Z,57.75
2023-12-09T10:06:48.785Z,57.99
2023-12-09T10:09:15.489Z,57.73
2023-12-09T10:11:41.995Z,58.03
2023-12-09T10:14:08.874Z,58.05
2023-12-09T10:16:36.523Z,58.05
2023-12-09T10:19:03.173Z,57.75
2023-12-09T10:21:29.899Z,58.08
2023-12-09T10:23:56.427Z,58.06
2023-12-09T10:26:23.123Z,57.77
2023-12-09T10:28:50.462Z,58.00
2023-12-09T10:31:17.620Z,57.77
2023-12-09T10:33:45.770Z,58.12
2023-12-09T10:36:12.490Z,57.99
2023-12-09T10:38:43.868Z,58.08
2023-12-09T10:41:13.954Z,57.89
2023-12-09T10:43:41.992Z,57.99
2023-12-09T10:46:11.352Z,57.69
2023-12-09T10:48:38.090Z,58.16
2023-12-09T10:51:05.106Z,58.13
2023-12-09T10:53:31.602Z,57.91
2023-12-09T10:55:59.099Z,58.00
2023-12-09T10:58:26.028Z,57.71
2023-12-09T11:00:52.987Z,58.20
2023-12-09T11:03:21.980Z,57.56
2023-12-09T11:05:56.085Z,57.88
2023-12-09T11:08:24.759Z,57.73
2023-12-09T11:10:51.452Z,57.90
2023-12-09T11:13:20.043Z,57.87
2023-12-09T11:15:46.740Z,58.17
2023-12-09T11:18:15.270Z,58.10
2023-12-09T11:20:42.862Z,57.91
2023-12-09T11:23:11.939Z,57.74
2023-12-09T11:25:43.767Z,57.83
2023-12-09T11:28:13.898Z,58.12
2023-12-09T11:30:43.021Z,57.80
2023-12-09T11:33:10.321Z,58.34
2023-12-09T11:35:38.252Z,58.18
2023-12-09T11:38:08.237Z,57.92
2023-12-09T11:40:34.862Z,57.95
2023-12-09T11:43:04.488Z,57.91
2023-12-09T11:45:31.212Z,58.09
2023-12-09T11:48:00.816Z,58.07
2023-12-09T11:50:28.647Z,58.07
2023-12-09T11:52:55.158Z,58.19
2023-12-09T11:55:21.725Z,58.10
2023-12-09T11:57:48.221Z,58.26
2023-12-09T12:00:15.143Z,57.81
2023-12-09T12:02:45.464Z,58.00
2023-12-09T12:05:13.012Z,57.89
2023-12-09T12:07:40.613Z,58.24
2023-12-09T12:10:08.597Z,58.19
2023-12-09T12:12:35.980Z,57.97
2023-12-09T12:15:03.619Z,58.16
2023-12-09T12:17:41.211Z,57.70
2023-12-09T12:20:11.061Z,58.15
2023-12-09T12:22:37.744Z,58.01
2023-12-09T12:25:05.448Z,58.21
2023-12-09T12:27:36.511Z,57.99
2023-12-09T12:30:04.920Z,57.84
2023-12-09T12:32:37.269Z,58.12
2023-12-09T12:35:05.193Z,58.13
2023-12-09T12:37:31.888Z,58.24
2023-12-09T12:39:58.666Z,58.00
2023-12-09T12:42:25.473Z,58.03
2023-12-09T12:44:52.143Z,58.17
2023-12-09T12:47:19.018Z,57.82
2023-12-09T12:49:46.108Z,58.32
2023-12-09T12:52:12.767Z,58.11
2023-12-09T12:54:39.586Z,57.99
2023-12-09T12:57:06.385Z,58.00
2023-12-09T12:59:32.961Z,58.29
2023-12-09T13:02:00.710Z,58.16
2023-12-09T13:04:27.275Z,58.26
2023-12-09T13:06:53.861Z,58.10
2023-12-09T13:09:20.549Z,58.17
2023-12-09T13:11:47.163Z,58.17
2023-12-09T13:14:13.708Z,57.99
2023-12-09T13:16:41.040Z,58.21
2023-12-09T13:19:07.829Z,58.21
2023-12-09T13:21:34.540Z,58.45
2023-12-09T13:24:01.110Z,58.04
2023-12-09T13:26:27.845Z,58.02
2023-12-09T13:28:54.434Z,58.02
2023-12-09T13:31:21.055Z,57.98
2023-12-09T13:33:49.272Z,57.85
2023-12-09T13:36:16.465Z,58.39
2023-12-09T13:38:43.364Z,58.09
2023-12-09T13:41:09.989Z,58.36
2023-12-09T13:43:36.496Z,58.05
2023-12-09T13:46:03.005Z,58.45
2023-12-09T13:48:29.711Z,58.08
2023-12-09T13:50:56.385Z,58.27
2023-12-09T13:53:22.953Z,57.91
2023-12-09T13:55:49.590Z,57.95
2023-12-09T13:58:16.140Z,58.34
2023-12-09T14:00:43.881Z,58.14
2023-12-09T14:03:11.070Z,57.95
2023-12-09T14:05:37.707Z,58.27
2023-12-09T14:08:04.671Z,58.12
2023-12-09T14:10:31.505Z,58.17
2023-12-09T14:12:58.022Z,58.03
2023-12-09T14:15:24.795Z,58.14
2023-12-09T14:17:51.694Z,58.38
2023-12-09T14:20:20.808Z,58.29
2023-12-09T14:22:47.538Z,58.22
2023-12-09T14:25:14.288Z,58.21
2023-12-09T14:27:41.129Z,58.06
2023-12-09T14:30:10.448Z,58.50
2023-12-09T14:32:38.476Z,58.28
2023-12-09T14:35:07.996Z,58.03
2023-12-09T14:37:35.067Z,58.18
2023-12-09T14:40:02.002Z,58.40
2023-12-09T14:42:28.798Z,57.94
2023-12-09T14:44:55.503Z,58.29
2023-12-09T14:47:22.328Z,58.29
2023-12-09T14:49:49.441Z,58.26
2023-12-09T14:52:16.777Z,58.08
2023-12-09T14:54:43.896Z,58.39
2023-12-09T14:57:10.729Z,58.20
2023-12-09T14:59:37.337Z,58.28
2023-12-09T15:02:04.099Z,58.21
2023-12-09T15:04:31.544Z,58.48
2023-12-09T15:06:58.151Z,58.36
2023-12-09T15:09:24.699Z,58.19
2023-12-09T15:11:52.174Z,58.11
2023-12-09T15:14:19.046Z,58.16
2023-12-09T15:16:45.693Z,58.36
2023-12-09T15:19:13.783Z,58.40
2023-12-09T15:21:40.396Z,58.07
2023-12-09T15:24:07.457Z,58.51
2023-12-09T15:26:34.552Z,58.52
2023-12-09T15:29:01.229Z,58.54
2023-12-09T15:31:28.072Z,58.50
2023-12-09T15:33:54.972Z,58.12
2023-12-09T15:36:22.008Z,58.20
2023-12-09T15:38:48.621Z,58.37
2023-12-09T15:41:15.222Z,58.71
2023-12-09T15:43:41.723Z,58.33
2023-12-09T15:46:08.380Z,58.24
2023-12-09T15:48:35.161Z,58.56
2023-12-09T15:51:03.273Z,58.42
2023-12-09T15:53:30.059Z,58.68
2023-12-09T15:55:56.666Z,58.41
2023-12-09T15:58:23.202Z,58.51
2023-12-09T16:00:49.819Z,58.36
2023-12-09T16:03:17.196Z,58.36
2023-12-09T16:05:44.264Z,58.70
2023-12-09T16:08:11.035Z,58.54
2023-12-09T16:10:37.603Z,58.28
2023-12-09T16:13:04.649Z,58.53
2023-12-09T16:15:31.757Z,58.62
2023-12-09T16:17:58.799Z,58.45
2023-12-09T16:20:25.354Z,58.74
2023-12-09T16:22:51.916Z,58.49
2023-12-09T16:25:18.429Z,58.40
2023-12-09T16:27:45.042Z,58.42
2023-12-09T16:30:11.940Z,58.80
2023-12-09T16:32:38.740Z,58.66
2023-12-09T16:35:05.645Z,58.40
2023-12-09T16:37:32.333Z,58.33
2023-12-09T16:39:58.840Z,58.51
2023-12-09T16:42:25.491Z,58.28
2023-12-09T16:44:52.366Z,58.66
2023-12-09T16:47:18.934Z,58.50
2023-12-09T16:49:45.541Z,58.81
2023-12-09T16:52:12.143Z,58.68
2023-12-09T16:54:39.486Z,58.70
2023-12-09T16:57:06.235Z,58.65
2023-12-09T16:59:32.917Z,58.63
2023-12-09T17:02:00.302Z,58.50
2023-12-09T17:04:27.558Z,58.86
2023-12-09T17:06:54.919Z,58.71
2023-12-09T17:09:21.720Z,58.86
2023-12-09T17:11:50.383Z,58.88
2023-12-09T17:14:17.079Z,58.74
2023-12-09T17:16:43.809Z,58.45
2023-12-09T17:19:10.521Z,58.35
2023-12-09T17:21:37.215Z,58.55
2023-12-09T17:24:04.162Z,58.69
2023-12-09T17:26:30.776Z,58.36
2023-12-09T17:28:57.355Z,58.60
2023-12-09T17:31:24.025Z,58.44
2023-12-09T17:33:50.895Z,58.55
2023-12-09T17:36:17.578Z,58.73
2023-12-09T17:38:44.236Z,58.66
2023-12-09T17:41:10.753Z,58.41
2023-12-09T17:43:37.317Z,58.76
2023-12-09T17:46:04.101Z,58.39
2023-12-09T17:48:30.988Z,58.87
2023-12-09T17:50:57.514Z,58.55
2023-12-09T17:53:24.331Z,58.57
2023-12-09T17:55:50.980Z,58.54
2023-12-09T17:58:17.604Z,58.81
2023-12-09T18:00:44.496Z,58.53
2023-12-09T18:03:11.298Z,58.77
2023-12-09T18:05:38.181Z,58.47
2023-12-09T18:08:05.420Z,58.51
2023-12-09T18:10:32.070Z,58.88
2023-12-09T18:12:59.664Z,58.59
2023-12-09T18:15:26.259Z,58.43
2023-12-09T18:17:54.476Z,58.94
2023-12-09T18:20:21.065Z,58.65
2023-12-09T18:22:47.548Z,58.80
2023-12-09T18:25:14.348Z,58.63
2023-12-09T18:27:41.717Z,58.45
2023-12-09T18:30:09.295Z,59.07
2023-12-09T18:32:39.514Z,58.86
2023-12-09T18:35:09.979Z,58.56
2023-12-09T18:37:37.984Z,58.63
2023-12-09T18:40:07.523Z,58.77
2023-12-09T18:42:34.792Z,59.03
2023-12-09T18:45:02.000Z,58.72
2023-12-09T18:47:47.398Z,58.69
2023-12-09T18:50:14.498Z,58.49
2023-12-09T18:52:41.270Z,59.20
2023-12-09T18:55:08.291Z,58.92
2023-12-09T18:57:35.548Z,58.88
2023-12-09T19:00:04.583Z,58.72
2023-12-09T19:02:31.969Z,58.99
2023-12-09T19:04:58.948Z,58.74
2023-12-09T19:07:25.754Z,58.92
2023-12-09T19:09:52.286Z,58.77
2023-12-09T19:12:18.821Z,58.83
2023-12-09T19:14:45.345Z,58.57
2023-12-09T19:17:12.431Z,59.05
2023-12-09T19:19:39.048Z,58.91
2023-12-09T19:22:05.839Z,58.54
2023-12-09T19:24:32.597Z,58.68
2023-12-09T19:26:59.828Z,59.13
2023-12-09T19:29:26.496Z,58.73
2023-12-09T19:31:53.058Z,58.82
2023-12-09T19:34:20.255Z,58.95
2023-12-09T19:36:47.252Z,58.71
2023-12-09T19:39:16.726Z,58.86
2023-12-09T19:41:43.580Z,59.01
2023-12-09T19:44:10.225Z,59.03
2023-12-09T19:46:37.230Z,58.96
2023-12-09T19:49:03.843Z,58.88
2023-12-09T19:51:30.499Z,59.04
2023-12-09T19:53:57.147Z,58.61
2023-12-09T19:56:23.829Z,58.91
2023-12-09T19:58:50.330Z,58.75
2023-12-09T20:01:17.154Z,58.86
2023-12-09T20:03:43.908Z,59.15
2023-12-09T20:06:10.596Z,58.85
2023-12-09T20:08:37.126Z,58.98
2023-12-09T20:11:04.601Z,59.08
2023-12-09T20:13:31.180Z,58.79
2023-12-09T20:15:57.785Z,58.86
2023-12-09T20:18:25.420Z,59.06
2023-12-09T20:20:52.039Z,58.73
2023-12-09T20:23:19.087Z,59.07
2023-12-09T20:25:45.672Z,58.85
2023-12-09T20:28:12.212Z,58.76
2023-12-09T20:30:39.219Z,58.82
2023-12-09T20:33:07.572Z,59.10
2023-12-09T20:35:34.404Z,59.27
2023-12-09T20:38:02.808Z,59.01
2023-12-09T20:40:29.423Z,58.73
2023-12-09T20:42:56.044Z,59.04
2023-12-09T20:45:22.735Z,58.90
2023-12-09T20:47:49.468Z,58.86
2023-12-09T20:50:16.171Z,58.98
2023-12-09T20:52:42.829Z,59.12
2023-12-09T20:55:09.720Z,58.89
2023-12-09T20:57:36.313Z,59.11
2023-12-09T21:00:03.978Z,59.18
2023-12-09T21:02:30.790Z,58.85
2023-12-09T21:04:58.173Z,59.06
2023-12-09T21:07:24.741Z,59.20
2023-12-09T21:09:51.256Z,59.01
2023-12-09T21:12:17.828Z,58.90
2023-12-09T21:14:44.376Z,58.89
2023-12-09T21:17:10.918Z,59.05
2023-12-09T21:19:38.480Z,59.13
2023-12-09T21:22:05.333Z,58.93
2023-12-09T21:24:32.424Z,59.17
2023-12-09T21:26:59.061Z,59.28
2023-12-09T21:29:25.772Z,58.82
2023-12-09T21:31:52.442Z,59.39
2023-12-09T21:34:19.203Z,59.11
2023-12-09T21:36:46.523Z,58.95
2023-12-09T21:39:13.453Z,59.02
2023-12-09T21:41:40.226Z,59.24
2023-12-09T21:44:06.807Z,58.89
2023-12-09T21:46:33.396Z,59.03
2023-12-09T21:49:00.235Z,59.15
2023-12-09T21:51:27.125Z,58.80
2023-12-09T21:53:53.840Z,59.10
2023-12-09T21:56:22.147Z,58.90
2023-12-09T21:58:50.095Z,59.08
2023-12-09T22:01:17.784Z,59.11
2023-12-09T22:03:45.135Z,59.18
2023-12-09T22:06:13.655Z,59.18
2023-12-09T22:08:41.537Z,59.23
2023-12-09T22:11:12.224Z,59.14
2023-12-09T22:13:39.931Z,59.12
2023-12-09T22:16:07.108Z,58.94
2023-12-09T22:18:33.838Z,59.20
2023-12-09T22:21:03.367Z,59.30
2023-12-09T22:23:30.044Z,59.25
2023-12-09T22:25:56.590Z,59.37
2023-12-09T22:28:23.291Z,58.91
2023-12-09T22:30:49.902Z,59.12
2023-12-09T22:33:16.905Z,59.18
2023-12-09T22:35:43.718Z,58.77
2023-12-09T22:38:10.293Z,59.39
2023-12-09T22:40:37.179Z,59.25
2023-12-09T22:43:03.890Z,59.00
2023-12-09T22:45:30.545Z,59.28
2023-12-09T22:47:57.594Z,59.43
2023-12-09T22:50:24.363Z,59.38
2023-12-09T22:52:50.929Z,59.43
2023-12-09T22:55:17.538Z,59.12
2023-12-09T22:57:44.157Z,59.33
2023-12-09T23:00:11.424Z,59.16
2023-12-09T23:02:37.963Z,59.18
2023-12-09T23:05:04.830Z,59.32
2023-12-09T23:07:31.377Z,59.36
2023-12-09T23:09:58.063Z,59.10
2023-12-09T23:12:24.724Z,59.37
2023-12-09T23:14:51.338Z,59.55
2023-12-09T23:17:17.890Z,59.35
2023-12-09T23:19:46.216Z,59.12
2023-12-09T23:22:12.849Z,59.03
2023-12-09T23:24:39.383Z,59.45
2023-12-09T23:27:07.113Z,59.63
2023-12-09T23:29:33.877Z,59.22
2023-12-09T23:32:00.987Z,59.21
2023-12-09T23:34:27.709Z,59.14
2023-12-09T23:36:56.380Z,59.13
2023-12-09T23:39:23.141Z,59.19
2023-12-09T23:41:51.124Z,59.08
2023-12-09T23:44:17.721Z,59.42
2023-12-09T23:46:44.700Z,59.19
2023-12-09T23:49:11.313Z,59.08
2023-12-09T23:51:37.914Z,59.20
2023-12-09T23:54:05.087Z,59.09
2023-12-09T23:56:31.794Z,59.43
2023-12-09T23:58:59.105Z,59.17
